createdAt,value
2018-09-01T00:00:43.277Z,12.73
2018-09-01T00:03:10.319Z,16.40
2018-09-01T00:05:37.368Z,12.10
2018-09-01T00:08:04.423Z,11.55
2018-09-01T00:10:31.574Z,10.90
2018-09-01T00:12:58.618Z,12.13
2018-09-01T00:15:25.665Z,14.27
2018-09-01T00:17:52.720Z,12.93
2018-09-01T00:20:19.764Z,12.55
2018-09-01T00:22:46.812Z,11.40
2018-09-01T00:25:13.865Z,12.45
2018-09-01T00:27:40.882Z,13.05
2018-09-01T00:30:07.924Z,14.00
2018-09-01T00:32:35.013Z,15.30
2018-09-01T00:35:02.034Z,9.95
2018-09-01T00:37:30.215Z,12.05
2018-09-01T00:39:58.098Z,14.23
2018-09-01T00:42:25.152Z,11.25
2018-09-01T00:44:52.197Z,12.45
2018-09-01T00:47:19.243Z,12.05
2018-09-01T00:49:46.395Z,9.20
2018-09-01T00:52:13.955Z,11.02
2018-09-01T00:54:41.003Z,11.40
2018-09-01T00:57:08.058Z,9.00
2018-09-01T00:59:35.716Z,10.10
2018-09-01T01:02:03.861Z,10.10
2018-09-01T01:04:30.940Z,9.15
2018-09-01T01:06:57.988Z,10.20
2018-09-01T01:09:25.041Z,10.10
2018-09-01T01:11:52.192Z,10.98
2018-09-01T01:14:19.237Z,10.80
2018-09-01T01:16:46.286Z,9.88
2018-09-01T01:19:13.340Z,9.65
2018-09-01T01:21:41.275Z,11.80
2018-09-01T01:24:08.354Z,9.77
2018-09-01T01:26:35.912Z,8.02
2018-09-01T01:29:02.983Z,9.43
2018-09-01T01:31:30.018Z,10.40
2018-09-01T01:33:57.172Z,9.48
2018-09-01T01:36:24.217Z,8.18
2018-09-01T01:38:51.261Z,7.87
2018-09-01T01:41:18.413Z,10.57
2018-09-01T01:43:46.391Z,8.98
2018-09-01T01:46:13.539Z,8.70
2018-09-01T01:48:40.583Z,10.60
2018-09-01T01:51:07.731Z,9.25
2018-09-01T01:53:34.779Z,7.40
2018-09-01T01:56:01.834Z,6.87
2018-09-01T01:58:28.878Z,8.95
2018-09-01T02:00:55.927Z,7.35
2018-09-01T02:03:22.985Z,7.53
2018-09-01T02:05:51.149Z,8.13
2018-09-01T02:08:18.204Z,10.20
2018-09-01T02:10:45.246Z,8.57
2018-09-01T02:13:13.010Z,10.13
2018-09-01T02:15:40.162Z,7.40
2018-09-01T02:18:07.210Z,8.18
2018-09-01T02:20:34.361Z,10.00
2018-09-01T02:23:01.416Z,7.03
2018-09-01T02:25:28.459Z,8.68
2018-09-01T02:27:55.718Z,8.43
2018-09-01T02:30:22.762Z,9.48
2018-09-01T02:32:49.809Z,6.40
2018-09-01T02:35:17.064Z,6.87
2018-09-01T02:37:44.073Z,7.32
2018-09-01T02:40:11.166Z,8.43
2018-09-01T02:42:38.931Z,9.38
2018-09-01T02:45:05.974Z,13.18
2018-09-01T02:47:33.024Z,12.45
2018-09-01T02:50:00.077Z,7.55
2018-09-01T02:52:27.120Z,4.80
2018-09-01T02:55:13.683Z,9.13
2018-09-01T02:58:05.490Z,6.43
2018-09-01T03:00:32.613Z,11.43
2018-09-01T03:03:04.576Z,8.07
2018-09-01T03:05:31.620Z,11.38
2018-09-01T03:07:58.674Z,20.30
2018-09-01T03:10:25.723Z,36.90
2018-09-01T03:12:52.786Z,9.88
2018-09-01T03:15:19.818Z,14.23
2018-09-01T03:17:47.374Z,12.73
2018-09-01T03:20:15.141Z,23.02
2018-09-01T03:22:42.193Z,12.57
2018-09-01T03:25:09.211Z,22.00
2018-09-01T03:27:36.289Z,18.67
2018-09-01T03:30:06.809Z,15.63
2018-09-01T03:32:33.871Z,11.18
2018-09-01T03:35:00.912Z,10.73
2018-09-01T03:37:28.066Z,9.52
2018-09-01T03:39:55.113Z,8.82
2018-09-01T03:42:22.168Z,6.20
2018-09-01T03:44:49.210Z,7.95
2018-09-01T03:47:17.182Z,4.90
2018-09-01T03:49:44.333Z,6.95
2018-09-01T03:52:12.002Z,6.60
2018-09-01T03:54:40.075Z,5.70
2018-09-01T03:57:07.118Z,5.70
2018-09-01T03:59:34.167Z,7.53
2018-09-01T04:02:01.218Z,5.28
2018-09-01T04:04:28.370Z,6.15
2018-09-01T04:06:58.077Z,5.43
2018-09-01T04:09:25.130Z,7.00
2018-09-01T04:11:52.172Z,6.82
2018-09-01T04:14:21.784Z,8.52
2018-09-01T04:16:48.839Z,6.57
2018-09-01T04:19:15.981Z,7.28
2018-09-01T04:21:43.035Z,5.70
2018-09-01T04:24:10.799Z,6.72
2018-09-01T04:26:38.462Z,6.15
2018-09-01T04:29:05.512Z,6.68
2018-09-01T04:31:33.554Z,5.62
2018-09-01T04:34:00.530Z,5.72
2018-09-01T04:36:50.007Z,5.93
2018-09-01T04:39:17.056Z,6.35
2018-09-01T04:41:44.079Z,5.75
2018-09-01T04:44:11.145Z,9.85
2018-09-01T04:46:38.158Z,4.95
2018-09-01T04:49:05.245Z,5.12
2018-09-01T04:51:32.296Z,9.50
2018-09-01T04:53:59.444Z,6.03
2018-09-01T04:56:26.595Z,7.85
2018-09-01T04:58:53.647Z,4.68
2018-09-01T05:01:20.799Z,6.82
2018-09-01T05:03:47.842Z,5.90
2018-09-01T05:06:14.891Z,6.90
2018-09-01T05:08:42.044Z,5.53
2018-09-01T05:11:09.099Z,5.95
2018-09-01T05:13:37.984Z,5.82
2018-09-01T05:16:05.031Z,5.78
2018-09-01T05:18:59.048Z,5.95
2018-09-01T05:21:26.272Z,6.37
2018-09-01T05:23:53.366Z,5.97
2018-09-01T05:26:20.976Z,7.15
2018-09-01T05:28:48.034Z,5.65
2018-09-01T05:31:16.613Z,7.62
2018-09-01T05:36:28.341Z,5.70
2018-09-01T05:38:57.785Z,6.50
2018-09-01T05:41:24.876Z,6.65
2018-09-01T05:43:52.231Z,5.93
2018-09-01T05:46:19.243Z,7.22
2018-09-01T05:48:46.328Z,5.47
2018-09-01T05:51:13.790Z,7.72
2018-09-01T05:53:40.847Z,6.87
2018-09-01T05:56:07.889Z,5.15
2018-09-01T05:58:35.348Z,6.10
2018-09-01T06:01:02.502Z,7.45
2018-09-01T06:03:30.054Z,6.78
2018-09-01T06:05:57.124Z,7.70
2018-09-01T06:08:24.123Z,6.85
2018-09-01T06:10:51.511Z,6.65
2018-09-01T06:13:46.210Z,8.68
2018-09-01T06:21:34.307Z,6.05
2018-09-01T06:24:01.480Z,7.87
2018-09-01T06:26:32.398Z,6.47
2018-09-01T06:29:01.640Z,6.03
2018-09-01T06:34:08.469Z,6.57
2018-09-01T06:36:52.622Z,6.10
2018-09-01T06:39:19.668Z,5.85
2018-09-01T06:41:47.154Z,7.37
2018-09-01T06:44:15.094Z,5.32
2018-09-01T06:46:42.148Z,7.75
2018-09-01T06:49:09.300Z,9.45
2018-09-01T06:51:36.409Z,6.70
2018-09-01T06:54:03.392Z,5.30
2018-09-01T06:56:30.448Z,8.18
2018-09-01T06:59:26.934Z,6.25
2018-09-01T07:01:54.035Z,6.07
2018-09-01T07:04:21.084Z,5.05
2018-09-01T07:06:49.049Z,6.12
2018-09-01T07:09:17.426Z,5.68
2018-09-01T07:14:40.539Z,6.35
2018-09-01T07:17:07.789Z,6.28
2018-09-01T07:19:34.842Z,6.30
2018-09-01T07:44:11.367Z,5.87
2018-09-01T07:46:39.818Z,6.82
2018-09-01T07:49:08.946Z,7.12
2018-09-01T07:51:47.356Z,5.97
2018-09-01T07:54:16.317Z,7.05
2018-09-01T07:56:43.368Z,4.25
2018-09-01T07:59:10.453Z,7.97
2018-09-01T08:01:37.495Z,8.23
2018-09-01T08:04:04.544Z,3.92
2018-09-01T08:06:31.599Z,5.55
2018-09-01T08:08:59.056Z,7.85
2018-09-01T08:11:26.099Z,6.20
2018-09-01T08:13:53.248Z,6.57
2018-09-01T08:16:20.202Z,6.60
2018-09-01T08:18:48.679Z,6.75
2018-09-01T08:21:15.738Z,7.32
2018-09-01T08:23:42.777Z,7.75
2018-09-01T08:26:11.099Z,8.10
2018-09-01T08:28:38.206Z,6.05
2018-09-01T08:31:05.457Z,6.55
2018-09-01T08:33:32.962Z,6.15
2018-09-01T08:36:03.996Z,5.70
2018-09-01T08:38:31.318Z,6.95
2018-09-01T08:40:58.362Z,5.95
2018-09-01T08:43:25.719Z,8.45
2018-09-01T08:45:52.773Z,6.78
2018-09-01T08:48:19.816Z,6.20
2018-09-01T08:50:47.690Z,6.85
2018-09-01T08:53:15.553Z,5.60
2018-09-01T08:55:42.703Z,5.22
2018-09-01T08:58:09.854Z,7.78
2018-09-01T09:00:38.098Z,6.57
2018-09-01T09:03:05.288Z,5.35
2018-09-01T09:05:32.354Z,5.78
2018-09-01T09:07:59.380Z,6.55
2018-09-01T09:10:31.040Z,6.07
2018-09-01T09:12:58.194Z,5.93
2018-09-01T09:15:43.894Z,5.50
2018-09-01T09:18:10.927Z,5.03
2018-09-01T09:20:38.044Z,11.12
2018-09-01T09:23:05.229Z,5.40
2018-09-01T09:25:32.328Z,5.72
2018-09-01T09:27:59.424Z,5.12
2018-09-01T09:30:26.575Z,5.65
2018-09-01T09:32:53.834Z,5.80
2018-09-01T09:35:20.876Z,5.43
2018-09-01T09:37:48.680Z,4.70
2018-09-01T09:40:15.689Z,4.85
2018-09-01T09:42:42.745Z,4.65
2018-09-01T09:45:09.894Z,4.82
2018-09-01T09:47:36.939Z,3.83
2018-09-01T09:50:04.090Z,5.00
2018-09-01T09:52:31.105Z,5.40
2018-09-01T09:54:58.194Z,3.58
2018-09-01T09:57:26.742Z,3.60
2018-09-01T09:59:54.128Z,4.00
2018-09-01T10:02:21.279Z,3.75
2018-09-01T10:04:48.538Z,3.12
2018-09-01T10:07:15.687Z,3.35
2018-09-01T10:09:42.732Z,3.47
2018-09-01T10:12:09.787Z,3.12
2018-09-01T10:14:37.345Z,3.00
2018-09-01T10:17:04.594Z,3.40
2018-09-01T10:19:31.746Z,5.82
2018-09-01T10:22:01.774Z,2.95
2018-09-01T10:24:28.815Z,2.58
2018-09-01T10:26:56.041Z,3.22
2018-09-01T10:29:23.114Z,3.17
2018-09-01T10:31:50.163Z,2.95
2018-09-01T10:34:17.313Z,3.42
2018-09-01T10:36:44.517Z,3.97
2018-09-01T10:39:11.718Z,3.20
2018-09-01T10:41:38.976Z,5.28
2018-09-01T10:44:06.131Z,4.10
2018-09-01T10:46:33.280Z,4.72
2018-09-01T10:49:00.630Z,3.92
2018-09-01T10:51:27.778Z,4.80
2018-09-01T10:53:56.039Z,4.93
2018-09-01T10:56:23.725Z,4.40
2018-09-01T10:58:50.822Z,4.40
2018-09-01T11:01:18.227Z,4.93
2018-09-01T11:03:45.658Z,4.47
2018-09-01T11:06:12.734Z,4.85
2018-09-01T11:08:39.789Z,4.05
2018-09-01T11:11:06.897Z,4.20
2018-09-01T11:13:34.089Z,4.03
2018-09-01T11:16:01.440Z,4.65
2018-09-01T11:18:28.489Z,5.87
2018-09-01T11:20:55.607Z,4.05
2018-09-01T11:23:22.697Z,4.22
2018-09-01T11:25:50.049Z,3.70
2018-09-01T11:28:17.093Z,3.83
2018-09-01T11:30:44.345Z,4.97
2018-09-01T11:33:11.395Z,4.60
2018-09-01T11:35:38.546Z,4.18
2018-09-01T11:38:05.601Z,4.07
2018-09-01T11:40:33.570Z,4.60
2018-09-01T11:43:00.700Z,4.93
2018-09-01T11:45:27.667Z,6.03
2018-09-01T11:47:55.634Z,5.22
2018-09-01T11:50:22.988Z,4.55
2018-09-01T11:52:50.045Z,5.15
2018-09-01T11:55:17.096Z,6.72
2018-09-01T11:57:45.808Z,5.30
2018-09-01T12:00:14.338Z,5.57
2018-09-01T12:02:42.840Z,6.82
2018-09-01T12:05:10.100Z,5.30
2018-09-01T12:07:38.458Z,6.47
2018-09-01T12:10:05.630Z,6.22
2018-09-01T12:12:32.979Z,10.63
2018-09-01T12:15:01.360Z,5.32
2018-09-01T12:17:28.618Z,7.60
2018-09-01T12:19:56.652Z,6.65
2018-09-01T12:22:23.850Z,7.20
2018-09-01T12:24:51.787Z,5.85
2018-09-01T12:27:18.855Z,6.15
2018-09-01T12:29:46.928Z,7.07
2018-09-01T12:32:13.983Z,6.80
2018-09-01T12:34:41.133Z,9.32
2018-09-01T12:37:09.992Z,6.32
2018-09-01T14:35:31.875Z,4.72
2018-09-01T14:37:59.237Z,4.12
2018-09-01T14:40:26.388Z,4.05
2018-09-01T14:42:53.538Z,4.70
2018-09-01T14:45:20.581Z,4.40
2018-09-01T14:47:47.630Z,2.83
2018-09-01T14:50:14.687Z,3.20
2018-09-01T14:52:43.143Z,3.00
2018-09-01T14:55:10.233Z,4.15
2018-09-01T14:57:37.259Z,3.97
2018-09-01T15:00:04.410Z,2.83
2018-09-01T15:02:31.561Z,3.05
2018-09-01T15:04:58.608Z,2.67
2018-09-01T15:07:25.664Z,4.53
2018-09-01T15:09:52.706Z,2.90
2018-09-01T15:12:19.856Z,2.80
2018-09-01T15:14:47.009Z,2.70
2018-09-01T15:17:14.161Z,2.90
2018-09-01T15:19:43.038Z,2.92
2018-09-01T15:22:10.103Z,2.97
2018-09-01T15:24:37.149Z,2.60
2018-09-01T15:27:04.198Z,2.70
2018-09-01T15:29:31.250Z,2.80
2018-09-01T15:31:58.403Z,2.60
2018-09-01T15:34:25.752Z,4.12
2018-09-01T15:36:53.011Z,3.80
2018-09-01T15:39:20.162Z,3.20
2018-09-01T15:41:47.205Z,3.08
2018-09-01T15:44:14.358Z,2.58
2018-09-01T15:46:42.090Z,2.80
2018-09-01T15:49:09.580Z,2.33
2018-09-01T15:51:42.467Z,3.35
2018-09-01T15:54:09.625Z,2.90
2018-09-01T15:56:36.866Z,3.25
2018-09-01T15:59:04.197Z,4.87
2018-09-01T16:01:31.382Z,2.70
2018-09-01T16:04:20.453Z,2.58
2018-09-01T16:07:09.310Z,2.65
2018-09-01T16:09:56.939Z,2.50
2018-09-01T16:12:24.910Z,5.78
2018-09-01T16:14:52.975Z,4.18
2018-09-01T16:17:20.026Z,3.20
2018-09-01T16:19:47.176Z,3.37
2018-09-01T16:22:14.229Z,2.80
2018-09-01T16:24:41.455Z,3.10
2018-09-01T16:27:08.629Z,2.53
2018-09-01T16:29:35.992Z,2.90
2018-09-01T16:32:03.447Z,4.93
2018-09-01T16:34:30.604Z,2.70
2018-09-01T16:37:00.034Z,2.60
2018-09-01T16:39:27.052Z,2.40
2018-09-01T16:42:14.270Z,3.03
2018-09-01T16:45:00.116Z,2.28
2018-09-01T16:47:27.214Z,3.05
2018-09-01T16:49:54.255Z,2.50
2018-09-01T16:52:21.407Z,4.50
2018-09-01T16:54:48.559Z,2.60
2018-09-01T16:57:15.606Z,3.20
2018-09-01T16:59:42.967Z,2.25
2018-09-01T17:02:10.011Z,2.50
2018-09-01T17:04:37.059Z,2.55
2018-09-01T17:07:10.453Z,2.47
2018-09-01T17:09:37.608Z,3.65
2018-09-01T17:12:04.929Z,2.62
2018-09-01T17:14:32.018Z,2.72
2018-09-01T17:16:59.168Z,2.80
2018-09-01T17:19:26.213Z,4.18
2018-09-01T17:21:53.364Z,2.45
2018-09-01T17:24:20.413Z,2.37
2018-09-01T17:26:47.562Z,3.45
2018-09-01T17:29:14.714Z,2.40
2018-09-01T17:31:41.768Z,1.98
2018-09-01T17:34:08.920Z,3.25
2018-09-01T17:36:35.958Z,3.12
2018-09-01T17:39:03.113Z,1.92
2018-09-01T17:41:30.273Z,4.97
2018-09-01T17:43:57.314Z,3.28
2018-09-01T17:46:24.367Z,2.92
2018-09-01T17:48:51.615Z,2.00
2018-09-01T17:51:18.765Z,2.05
2018-09-01T17:53:45.886Z,3.17
2018-09-01T17:56:12.970Z,2.12
2018-09-01T17:58:40.220Z,2.30
2018-09-01T18:01:10.238Z,2.30
2018-09-01T18:03:37.390Z,2.10
2018-09-01T18:06:05.833Z,2.22
2018-09-01T18:08:32.919Z,2.10
2018-09-01T18:11:00.073Z,1.87
2018-09-01T18:13:27.119Z,1.83
2018-09-01T18:15:54.174Z,1.87
2018-09-01T18:18:21.223Z,1.98
2018-09-01T18:20:48.675Z,1.85
2018-09-01T18:23:32.544Z,2.03
2018-09-01T18:25:59.565Z,1.73
2018-09-01T18:28:26.716Z,1.95
2018-09-01T18:30:53.766Z,1.87
2018-09-01T18:33:20.822Z,2.22
2018-09-01T18:35:47.883Z,3.12
2018-09-01T18:38:15.015Z,2.33
2018-09-01T18:40:42.272Z,2.15
2018-09-01T18:43:09.623Z,1.80
2018-09-01T18:45:36.672Z,2.05
2018-09-01T18:48:03.826Z,1.80
2018-09-01T18:50:30.878Z,3.15
2018-09-01T18:52:58.202Z,2.45
2018-09-01T18:55:26.287Z,4.30
2018-09-01T18:58:08.624Z,2.10
2018-09-01T19:00:35.859Z,2.17
2018-09-01T19:03:02.916Z,3.17
2018-09-01T19:05:30.162Z,2.00
2018-09-01T19:07:58.349Z,2.03
2018-09-01T19:10:25.597Z,4.53
2018-09-01T19:12:53.151Z,2.12
2018-09-01T19:15:20.405Z,1.83
2018-09-01T19:17:47.556Z,5.68
2018-09-01T19:20:14.815Z,2.40
2018-09-01T19:22:42.026Z,2.25
2018-09-01T19:25:09.213Z,2.00
2018-09-01T19:27:36.575Z,2.00
2018-09-01T19:30:03.726Z,2.10
2018-09-01T19:32:31.077Z,2.37
2018-09-01T19:34:58.508Z,1.83
2018-09-01T19:37:25.582Z,3.33
2018-09-01T19:39:54.234Z,2.30
2018-09-01T19:42:22.445Z,2.28
2018-09-01T19:44:50.089Z,4.50
2018-09-01T19:47:17.054Z,2.33
2018-09-01T19:49:44.623Z,2.10
2018-09-01T19:52:11.663Z,2.55
2018-09-01T19:54:38.815Z,2.70
2018-09-01T19:57:05.965Z,2.42
2018-09-01T19:59:33.224Z,2.10
2018-09-01T20:02:00.269Z,2.00
2018-09-01T20:04:27.578Z,3.53
2018-09-01T20:06:57.553Z,2.92
2018-09-01T20:09:24.593Z,2.45
2018-09-01T20:11:51.840Z,2.47
2018-09-01T20:14:18.991Z,3.60
2018-09-01T20:16:46.356Z,3.17
2018-09-01T20:19:13.397Z,2.62
2018-09-01T20:21:40.547Z,2.67
2018-09-01T20:24:07.697Z,2.67
2018-09-01T20:26:34.962Z,7.37
2018-09-01T20:29:02.001Z,2.47
2018-09-01T20:31:29.050Z,2.72
2018-09-01T20:33:56.508Z,1.70
2018-09-01T20:36:23.562Z,2.10
2018-09-01T20:38:50.610Z,2.78
2018-09-01T20:41:17.961Z,1.98
2018-09-01T20:43:45.014Z,1.80
2018-09-01T20:46:12.058Z,1.90
2018-09-01T20:48:40.105Z,2.20
2018-09-01T20:51:07.282Z,1.87
2018-09-01T20:53:34.638Z,3.92
2018-09-01T20:56:01.691Z,2.75
2018-09-01T20:58:28.734Z,1.80
2018-09-01T21:00:55.886Z,2.00
2018-09-01T21:03:22.935Z,3.65
2018-09-01T21:05:50.699Z,2.22
2018-09-01T21:08:17.753Z,2.75
2018-09-01T21:10:47.670Z,1.80
2018-09-01T21:13:15.327Z,1.80
2018-09-01T21:15:42.376Z,2.25
2018-09-01T21:18:09.431Z,2.00
2018-09-01T21:20:36.985Z,4.03
2018-09-01T21:23:04.138Z,8.30
2018-09-01T21:25:31.288Z,8.75
2018-09-01T21:27:58.609Z,5.75
2018-09-01T21:30:25.697Z,5.95
2018-09-01T21:32:53.565Z,4.97
2018-09-01T21:35:21.531Z,5.57
2018-09-01T21:37:48.578Z,6.00
2018-09-01T21:40:15.635Z,7.85
2018-09-01T21:42:42.787Z,14.57
2018-09-01T21:45:09.831Z,6.40
2018-09-01T21:47:37.091Z,4.50
2018-09-01T21:50:05.010Z,4.62
2018-09-01T21:52:32.363Z,3.70
2018-09-01T21:54:59.409Z,5.43
2018-09-01T21:57:26.463Z,5.12
2018-09-01T21:59:53.614Z,3.97
2018-09-01T22:02:20.861Z,3.65
2018-09-01T22:04:47.917Z,3.85
2018-09-01T22:07:15.461Z,10.98
2018-09-01T22:09:42.524Z,13.95
2018-09-01T22:12:09.566Z,5.50
2018-09-01T22:14:36.717Z,6.18
2018-09-01T22:17:03.765Z,6.22
2018-09-01T22:19:30.820Z,3.87
2018-09-01T22:22:00.077Z,4.43
2018-09-01T22:24:27.887Z,5.60
2018-09-01T22:26:55.365Z,3.00
2018-09-01T22:29:22.389Z,3.50
2018-09-01T22:31:49.440Z,3.80
2018-09-01T22:34:16.492Z,11.48
2018-09-01T22:36:43.508Z,5.30
2018-09-01T22:39:10.583Z,8.13
2018-09-01T22:41:37.735Z,6.78
2018-09-01T22:44:04.987Z,6.32
2018-09-01T22:46:32.247Z,5.78
2018-09-01T22:48:59.289Z,3.55
2018-09-01T22:51:27.054Z,4.43
2018-09-01T22:53:54.207Z,3.83
2018-09-01T22:56:21.254Z,4.37
2018-09-01T22:58:48.311Z,4.47
2018-09-01T23:01:15.359Z,3.47
2018-09-01T23:03:42.503Z,4.10
2018-09-01T23:06:09.551Z,3.70
2018-09-01T23:08:37.624Z,3.12
2018-09-01T23:11:04.678Z,4.12
2018-09-01T23:13:31.890Z,4.32
2018-09-01T23:15:59.596Z,3.10
2018-09-01T23:18:26.638Z,7.15
2018-09-01T23:20:53.791Z,3.35
2018-09-01T23:23:21.146Z,3.33
2018-09-01T23:25:48.198Z,3.20
2018-09-01T23:28:15.243Z,3.80
2018-09-01T23:30:43.598Z,3.30
2018-09-01T23:33:10.671Z,3.97
2018-09-01T23:35:37.725Z,4.10
2018-09-01T23:38:04.768Z,3.03
2018-09-01T23:40:31.818Z,2.70
2018-09-01T23:42:58.869Z,3.47
2018-09-01T23:45:25.913Z,3.10
2018-09-01T23:47:52.967Z,3.08
2018-09-01T23:50:20.019Z,3.90
2018-09-01T23:52:47.060Z,2.72
2018-09-01T23:55:14.125Z,3.60
2018-09-01T23:57:41.161Z,2.85
